NCAR-RAP Real-Time Weather Data

Output produced by METARs form (12 May 2021  12:00 UTC)
found at http://weather.rap.ucar.edu/surface/
 
KLAS 121156Z 31004KT 10SM CLR 21/M06 A2999 RMK AO2 SLP135 T02061061 10250 20200 53014
KLAS 121056Z 36004KT 10SM CLR 21/M09 A2997 RMK AO2 SLP128 T02111089
KLAS 120956Z 00000KT 10SM CLR 20/M08 A2996 RMK AO2 SLP126 T02001083
KLAS 120856Z 00000KT 10SM CLR 22/M07 A2995 RMK AO2 SLP121 T02171072 50003
KLAS 120756Z 25003KT 10SM CLR 22/M06 A2995 RMK AO2 SLP122 T02221056 403060200
KLAS 120656Z 28006KT 10SM CLR 23/M06 A2994 RMK AO2 SLP119 T02331061
KLAS 120556Z 29003KT 10SM CLR 24/M05 A2994 RMK AO2 SLP116 T02441050 10306 20239 51018
KLAS 120456Z 10003KT 10SM CLR 27/M08 A2993 RMK AO2 SLP114 T02721078
KLAS 120356Z 06005KT 10SM CLR 28/M09 A2991 RMK AO2 SLP108 T02781089
KLAS 120256Z 29005KT 10SM CLR 29/M09 A2988 RMK AO2 SLP099 T02891089 55002
KLAS 120156Z 35007KT 10SM CLR 29/M09 A2988 RMK AO2 SLP096 T02941089
KLAS 120056Z 36003KT 10SM CLR 30/M09 A2988 RMK AO2 SLP096 T03001089
KLAS 112356Z 00000KT 10SM CLR 29/M09 A2989 RMK AO2 SLP100 T02941094 10306 20256 56021